sensor_id;sensor_type;location;lat;lon;timestamp;P1;durP1;ratioP1;P2;durP2;ratioP2
10120;SDS011;5100;45.176;5.714;2022-11-15T00:01:48;4.95;;;3.47;;
10120;SDS011;5100;45.176;5.714;2022-11-15T00:04:33;3.12;;;2.92;;
10120;SDS011;5100;45.176;5.714;2022-11-15T00:07:17;4.18;;;3.53;;
10120;SDS011;5100;45.176;5.714;2022-11-15T00:10:02;4.78;;;4.00;;
10120;SDS011;5100;45.176;5.714;2022-11-15T00:12:47;4.82;;;4.32;;
10120;SDS011;5100;45.176;5.714;2022-11-15T00:15:33;4.90;;;4.22;;
10120;SDS011;5100;45.176;5.714;2022-11-15T00:18:18;4.53;;;4.10;;
10120;SDS011;5100;45.176;5.714;2022-11-15T00:21:04;4.22;;;3.85;;
10120;SDS011;5100;45.176;5.714;2022-11-15T00:23:51;6.35;;;3.85;;
10120;SDS011;5100;45.176;5.714;2022-11-15T00:26:35;4.80;;;4.37;;
10120;SDS011;5100;45.176;5.714;2022-11-15T00:29:20;4.10;;;3.80;;
10120;SDS011;5100;45.176;5.714;2022-11-15T00:32:04;4.37;;;3.47;;
10120;SDS011;5100;45.176;5.714;2022-11-15T00:34:49;4.40;;;4.00;;
10120;SDS011;5100;45.176;5.714;2022-11-15T00:37:33;4.70;;;4.28;;
10120;SDS011;5100;45.176;5.714;2022-11-15T00:40:18;5.47;;;4.55;;
10120;SDS011;5100;45.176;5.714;2022-11-15T00:43:02;4.53;;;4.12;;
10120;SDS011;5100;45.176;5.714;2022-11-15T00:45:46;5.00;;;4.60;;
10120;SDS011;5100;45.176;5.714;2022-11-15T00:48:31;4.78;;;4.37;;
10120;SDS011;5100;45.176;5.714;2022-11-15T00:51:15;4.90;;;4.50;;
10120;SDS011;5100;45.176;5.714;2022-11-15T00:54:00;6.40;;;4.47;;
10120;SDS011;5100;45.176;5.714;2022-11-15T00:56:44;4.82;;;4.43;;
10120;SDS011;5100;45.176;5.714;2022-11-15T00:59:29;6.12;;;4.85;;
10120;SDS011;5100;45.176;5.714;2022-11-15T01:02:13;5.62;;;5.05;;
10120;SDS011;5100;45.176;5.714;2022-11-15T01:04:58;5.37;;;4.72;;
10120;SDS011;5100;45.176;5.714;2022-11-15T01:07:42;5.25;;;4.75;;
10120;SDS011;5100;45.176;5.714;2022-11-15T01:10:27;5.25;;;4.75;;
10120;SDS011;5100;45.176;5.714;2022-11-15T01:13:11;6.35;;;4.85;;
10120;SDS011;5100;45.176;5.714;2022-11-15T01:15:56;5.90;;;5.00;;
10120;SDS011;5100;45.176;5.714;2022-11-15T01:18:40;4.97;;;4.50;;
10120;SDS011;5100;45.176;5.714;2022-11-15T01:21:25;5.40;;;4.62;;
10120;SDS011;5100;45.176;5.714;2022-11-15T01:24:12;4.95;;;4.45;;
10120;SDS011;5100;45.176;5.714;2022-11-15T01:26:57;5.95;;;4.45;;
10120;SDS011;5100;45.176;5.714;2022-11-15T01:29:41;4.93;;;4.53;;
10120;SDS011;5100;45.176;5.714;2022-11-15T01:32:26;5.22;;;4.65;;
10120;SDS011;5100;45.176;5.714;2022-11-15T01:35:10;4.87;;;4.47;;
10120;SDS011;5100;45.176;5.714;2022-11-15T01:37:55;5.57;;;5.07;;
10120;SDS011;5100;45.176;5.714;2022-11-15T01:40:39;5.70;;;5.05;;
10120;SDS011;5100;45.176;5.714;2022-11-15T01:43:28;6.28;;;5.05;;
10120;SDS011;5100;45.176;5.714;2022-11-15T01:49:16;5.97;;;4.35;;
10120;SDS011;5100;45.176;5.714;2022-11-15T01:52:04;5.07;;;4.50;;
10120;SDS011;5100;45.176;5.714;2022-11-15T01:54:53;5.03;;;4.53;;
10120;SDS011;5100;45.176;5.714;2022-11-15T01:57:59;4.50;;;4.03;;
10120;SDS011;5100;45.176;5.714;2022-11-15T02:00:45;4.15;;;3.80;;
10120;SDS011;5100;45.176;5.714;2022-11-15T02:03:33;4.87;;;3.60;;
10120;SDS011;5100;45.176;5.714;2022-11-15T02:06:23;4.57;;;4.15;;
10120;SDS011;5100;45.176;5.714;2022-11-15T02:09:07;5.00;;;4.57;;
10120;SDS011;5100;45.176;5.714;2022-11-15T02:11:52;4.40;;;3.85;;
10120;SDS011;5100;45.176;5.714;2022-11-15T02:14:39;4.90;;;4.40;;
10120;SDS011;5100;45.176;5.714;2022-11-15T02:27:14;4.57;;;4.17;;
10120;SDS011;5100;45.176;5.714;2022-11-15T02:36:10;4.50;;;4.07;;
10120;SDS011;5100;45.176;5.714;2022-11-15T02:39:02;4.82;;;4.43;;
10120;SDS011;5100;45.176;5.714;2022-11-15T02:44:43;4.60;;;3.75;;
10120;SDS011;5100;45.176;5.714;2022-11-15T02:47:30;4.57;;;4.07;;
10120;SDS011;5100;45.176;5.714;2022-11-15T02:50:19;4.97;;;3.80;;
10120;SDS011;5100;45.176;5.714;2022-11-15T02:53:07;4.37;;;3.80;;
10120;SDS011;5100;45.176;5.714;2022-11-15T02:55:52;4.13;;;3.53;;
10120;SDS011;5100;45.176;5.714;2022-11-15T02:58:46;3.97;;;3.67;;
10120;SDS011;5100;45.176;5.714;2022-11-15T03:07:51;4.15;;;3.85;;
10120;SDS011;5100;45.176;5.714;2022-11-15T03:11:03;4.93;;;4.30;;
10120;SDS011;5100;45.176;5.714;2022-11-15T03:14:15;4.20;;;3.80;;
10120;SDS011;5100;45.176;5.714;2022-11-15T03:17:28;4.07;;;3.72;;
10120;SDS011;5100;45.176;5.714;2022-11-15T03:20:17;4.90;;;3.93;;
10120;SDS011;5100;45.176;5.714;2022-11-15T03:23:06;3.97;;;3.50;;
10120;SDS011;5100;45.176;5.714;2022-11-15T03:25:53;4.37;;;3.92;;
10120;SDS011;5100;45.176;5.714;2022-11-15T03:28:41;5.00;;;4.50;;
10120;SDS011;5100;45.176;5.714;2022-11-15T03:31:34;5.47;;;4.40;;
10120;SDS011;5100;45.176;5.714;2022-11-15T03:40:55;4.50;;;4.10;;
10120;SDS011;5100;45.176;5.714;2022-11-15T03:47:31;4.62;;;4.22;;
10120;SDS011;5100;45.176;5.714;2022-11-15T03:50:19;4.73;;;4.33;;
10120;SDS011;5100;45.176;5.714;2022-11-15T03:53:06;6.63;;;4.33;;
10120;SDS011;5100;45.176;5.714;2022-11-15T03:55:51;5.25;;;4.75;;
10120;SDS011;5100;45.176;5.714;2022-11-15T03:58:35;5.18;;;4.45;;
10120;SDS011;5100;45.176;5.714;2022-11-15T04:01:19;4.87;;;4.30;;
10120;SDS011;5100;45.176;5.714;2022-11-15T04:04:04;5.27;;;4.87;;
10120;SDS011;5100;45.176;5.714;2022-11-15T04:06:48;4.82;;;4.43;;
10120;SDS011;5100;45.176;5.714;2022-11-15T04:09:32;5.00;;;4.60;;
10120;SDS011;5100;45.176;5.714;2022-11-15T04:12:17;5.18;;;4.62;;
10120;SDS011;5100;45.176;5.714;2022-11-15T04:15:18;5.40;;;4.90;;
10120;SDS011;5100;45.176;5.714;2022-11-15T04:18:03;4.60;;;4.20;;
10120;SDS011;5100;45.176;5.714;2022-11-15T04:20:48;4.95;;;4.45;;
10120;SDS011;5100;45.176;5.714;2022-11-15T04:23:51;4.37;;;3.97;;
10120;SDS011;5100;45.176;5.714;2022-11-15T04:26:38;4.65;;;4.03;;
10120;SDS011;5100;45.176;5.714;2022-11-15T04:29:23;8.10;;;4.35;;
10120;SDS011;5100;45.176;5.714;2022-11-15T04:32:20;4.50;;;4.10;;
10120;SDS011;5100;45.176;5.714;2022-11-15T04:35:04;4.20;;;3.80;;
10120;SDS011;5100;45.176;5.714;2022-11-15T04:37:49;4.03;;;3.63;;
10120;SDS011;5100;45.176;5.714;2022-11-15T04:40:33;4.20;;;3.15;;
10120;SDS011;5100;45.176;5.714;2022-11-15T04:43:18;5.35;;;3.50;;
10120;SDS011;5100;45.176;5.714;2022-11-15T04:46:03;3.70;;;3.40;;
10120;SDS011;5100;45.176;5.714;2022-11-15T04:48:47;4.20;;;3.42;;
10120;SDS011;5100;45.176;5.714;2022-11-15T04:51:32;3.75;;;3.45;;
10120;SDS011;5100;45.176;5.714;2022-11-15T04:54:16;3.90;;;3.50;;
10120;SDS011;5100;45.176;5.714;2022-11-15T04:57:01;3.83;;;3.53;;
10120;SDS011;5100;45.176;5.714;2022-11-15T04:59:46;3.67;;;3.37;;
10120;SDS011;5100;45.176;5.714;2022-11-15T05:02:30;4.28;;;3.67;;
10120;SDS011;5100;45.176;5.714;2022-11-15T05:05:34;4.87;;;3.58;;
10120;SDS011;5100;45.176;5.714;2022-11-15T05:08:19;4.28;;;3.87;;
10120;SDS011;5100;45.176;5.714;2022-11-15T05:11:03;3.83;;;3.53;;
10120;SDS011;5100;45.176;5.714;2022-11-15T05:13:48;4.28;;;3.87;;
10120;SDS011;5100;45.176;5.714;2022-11-15T05:16:33;4.50;;;4.10;;
10120;SDS011;5100;45.176;5.714;2022-11-15T05:19:17;5.03;;;4.53;;
10120;SDS011;5100;45.176;5.714;2022-11-15T05:22:01;5.37;;;4.62;;
10120;SDS011;5100;45.176;5.714;2022-11-15T05:24:46;5.28;;;4.87;;
10120;SDS011;5100;45.176;5.714;2022-11-15T05:27:31;4.87;;;4.32;;
10120;SDS011;5100;45.176;5.714;2022-11-15T05:30:16;4.40;;;4.00;;
10120;SDS011;5100;45.176;5.714;2022-11-15T05:33:00;3.97;;;3.67;;
10120;SDS011;5100;45.176;5.714;2022-11-15T05:35:46;4.32;;;3.92;;
10120;SDS011;5100;45.176;5.714;2022-11-15T05:38:38;3.83;;;3.53;;
10120;SDS011;5100;45.176;5.714;2022-11-15T05:41:29;3.55;;;3.25;;
10120;SDS011;5100;45.176;5.714;2022-11-15T05:44:18;4.62;;;3.60;;
10120;SDS011;5100;45.176;5.714;2022-11-15T05:47:05;3.40;;;3.10;;
10120;SDS011;5100;45.176;5.714;2022-11-15T05:49:52;4.33;;;3.03;;
10120;SDS011;5100;45.176;5.714;2022-11-15T05:52:37;3.50;;;3.20;;
10120;SDS011;5100;45.176;5.714;2022-11-15T05:55:22;5.00;;;4.10;;
10120;SDS011;5100;45.176;5.714;2022-11-15T05:58:06;4.05;;;3.70;;
10120;SDS011;5100;45.176;5.714;2022-11-15T06:00:51;4.40;;;3.50;;
10120;SDS011;5100;45.176;5.714;2022-11-15T06:03:36;5.93;;;3.80;;
10120;SDS011;5100;45.176;5.714;2022-11-15T06:06:20;3.72;;;3.42;;
10120;SDS011;5100;45.176;5.714;2022-11-15T06:09:05;3.77;;;3.40;;
10120;SDS011;5100;45.176;5.714;2022-11-15T06:11:49;4.37;;;4.03;;
10120;SDS011;5100;45.176;5.714;2022-11-15T06:14:34;4.80;;;4.40;;
10120;SDS011;5100;45.176;5.714;2022-11-15T06:17:18;5.20;;;4.53;;
10120;SDS011;5100;45.176;5.714;2022-11-15T06:20:03;4.57;;;4.18;;
10120;SDS011;5100;45.176;5.714;2022-11-15T06:22:47;5.20;;;4.13;;
10120;SDS011;5100;45.176;5.714;2022-11-15T06:25:32;4.70;;;4.30;;
10120;SDS011;5100;45.176;5.714;2022-11-15T06:28:16;4.03;;;3.63;;
10120;SDS011;5100;45.176;5.714;2022-11-15T06:31:08;4.60;;;4.20;;
10120;SDS011;5100;45.176;5.714;2022-11-15T06:33:57;6.82;;;5.03;;
10120;SDS011;5100;45.176;5.714;2022-11-15T06:36:42;4.95;;;4.45;;
10120;SDS011;5100;45.176;5.714;2022-11-15T06:39:26;4.78;;;4.37;;
10120;SDS011;5100;45.176;5.714;2022-11-15T06:42:10;5.20;;;4.70;;
10120;SDS011;5100;45.176;5.714;2022-11-15T06:44:55;5.10;;;4.50;;
10120;SDS011;5100;45.176;5.714;2022-11-15T06:47:45;5.83;;;4.83;;
10120;SDS011;5100;45.176;5.714;2022-11-15T06:50:30;6.20;;;4.80;;
10120;SDS011;5100;45.176;5.714;2022-11-15T06:53:15;5.53;;;4.43;;
10120;SDS011;5100;45.176;5.714;2022-11-15T06:56:00;4.70;;;4.30;;
10120;SDS011;5100;45.176;5.714;2022-11-15T06:58:45;4.40;;;4.00;;
10120;SDS011;5100;45.176;5.714;2022-11-15T07:01:29;4.23;;;3.93;;
10120;SDS011;5100;45.176;5.714;2022-11-15T07:04:14;5.03;;;4.33;;
10120;SDS011;5100;45.176;5.714;2022-11-15T07:06:58;4.87;;;4.40;;
10120;SDS011;5100;45.176;5.714;2022-11-15T07:09:44;4.93;;;4.10;;
10120;SDS011;5100;45.176;5.714;2022-11-15T07:12:28;4.60;;;4.03;;
10120;SDS011;5100;45.176;5.714;2022-11-15T07:15:12;4.47;;;4.07;;
10120;SDS011;5100;45.176;5.714;2022-11-15T07:18:00;4.40;;;4.00;;
10120;SDS011;5100;45.176;5.714;2022-11-15T07:20:45;4.60;;;4.20;;
10120;SDS011;5100;45.176;5.714;2022-11-15T07:23:29;4.53;;;3.93;;
10120;SDS011;5100;45.176;5.714;2022-11-15T07:26:14;4.35;;;3.95;;
10120;SDS011;5100;45.176;5.714;2022-11-15T07:28:58;3.70;;;3.30;;
10120;SDS011;5100;45.176;5.714;2022-11-15T07:31:43;4.43;;;3.65;;
10120;SDS011;5100;45.176;5.714;2022-11-15T07:34:27;4.55;;;3.80;;
10120;SDS011;5100;45.176;5.714;2022-11-15T07:37:12;4.72;;;3.60;;
10120;SDS011;5100;45.176;5.714;2022-11-15T07:39:56;4.47;;;3.83;;
10120;SDS011;5100;45.176;5.714;2022-11-15T07:42:41;4.50;;;4.10;;
10120;SDS011;5100;45.176;5.714;2022-11-15T07:45:43;4.80;;;3.90;;
10120;SDS011;5100;45.176;5.714;2022-11-15T07:48:28;3.97;;;3.58;;
10120;SDS011;5100;45.176;5.714;2022-11-15T07:51:13;4.30;;;3.90;;
10120;SDS011;5100;45.176;5.714;2022-11-15T07:53:59;4.10;;;3.70;;
10120;SDS011;5100;45.176;5.714;2022-11-15T07:56:43;3.90;;;3.53;;
10120;SDS011;5100;45.176;5.714;2022-11-15T07:59:28;5.00;;;4.22;;
10120;SDS011;5100;45.176;5.714;2022-11-15T08:02:12;3.97;;;3.37;;
10120;SDS011;5100;45.176;5.714;2022-11-15T08:04:57;3.75;;;3.10;;
10120;SDS011;5100;45.176;5.714;2022-11-15T08:07:41;3.78;;;3.30;;
10120;SDS011;5100;45.176;5.714;2022-11-15T08:10:26;3.47;;;3.12;;
10120;SDS011;5100;45.176;5.714;2022-11-15T08:13:12;4.28;;;3.87;;
10120;SDS011;5100;45.176;5.714;2022-11-15T08:16:00;5.18;;;3.80;;
10120;SDS011;5100;45.176;5.714;2022-11-15T08:18:46;4.85;;;4.30;;
10120;SDS011;5100;45.176;5.714;2022-11-15T08:21:31;4.93;;;4.47;;
10120;SDS011;5100;45.176;5.714;2022-11-15T08:24:15;5.32;;;4.82;;
10120;SDS011;5100;45.176;5.714;2022-11-15T08:27:00;5.00;;;4.60;;
10120;SDS011;5100;45.176;5.714;2022-11-15T08:29:44;4.57;;;3.55;;
10120;SDS011;5100;45.176;5.714;2022-11-15T08:32:30;3.70;;;3.40;;
10120;SDS011;5100;45.176;5.714;2022-11-15T08:35:14;3.47;;;3.15;;
10120;SDS011;5100;45.176;5.714;2022-11-15T08:37:59;3.90;;;3.05;;
10120;SDS011;5100;45.176;5.714;2022-11-15T08:40:44;3.28;;;3.08;;
10120;SDS011;5100;45.176;5.714;2022-11-15T08:43:28;3.03;;;2.70;;
10120;SDS011;5100;45.176;5.714;2022-11-15T08:46:13;3.30;;;3.00;;
10120;SDS011;5100;45.176;5.714;2022-11-15T08:48:58;3.42;;;2.90;;
10120;SDS011;5100;45.176;5.714;2022-11-15T08:51:42;3.83;;;3.00;;
10120;SDS011;5100;45.176;5.714;2022-11-15T08:54:26;3.55;;;3.03;;
10120;SDS011;5100;45.176;5.714;2022-11-15T08:57:11;5.62;;;3.28;;
10120;SDS011;5100;45.176;5.714;2022-11-15T08:59:55;3.22;;;2.97;;
10120;SDS011;5100;45.176;5.714;2022-11-15T09:02:40;3.65;;;3.37;;
10120;SDS011;5100;45.176;5.714;2022-11-15T09:05:25;3.42;;;3.12;;
10120;SDS011;5100;45.176;5.714;2022-11-15T09:08:10;5.57;;;3.50;;
10120;SDS011;5100;45.176;5.714;2022-11-15T09:10:56;3.40;;;3.10;;
10120;SDS011;5100;45.176;5.714;2022-11-15T09:13:40;3.50;;;3.20;;
10120;SDS011;5100;45.176;5.714;2022-11-15T09:16:25;3.47;;;2.90;;
10120;SDS011;5100;45.176;5.714;2022-11-15T09:19:09;3.70;;;3.15;;
10120;SDS011;5100;45.176;5.714;2022-11-15T09:21:54;3.10;;;2.80;;
10120;SDS011;5100;45.176;5.714;2022-11-15T09:24:39;6.40;;;3.20;;
10120;SDS011;5100;45.176;5.714;2022-11-15T09:27:27;3.28;;;2.97;;
10120;SDS011;5100;45.176;5.714;2022-11-15T09:30:12;3.40;;;3.10;;
10120;SDS011;5100;45.176;5.714;2022-11-15T09:32:57;3.22;;;3.00;;
10120;SDS011;5100;45.176;5.714;2022-11-15T09:35:41;4.05;;;2.90;;
10120;SDS011;5100;45.176;5.714;2022-11-15T09:38:25;3.53;;;2.97;;
10120;SDS011;5100;45.176;5.714;2022-11-15T09:50:12;3.75;;;2.50;;
10120;SDS011;5100;45.176;5.714;2022-11-15T09:52:44;3.40;;;2.90;;
10120;SDS011;5100;45.176;5.714;2022-11-15T09:55:11;3.15;;;2.85;;
10120;SDS011;5100;45.176;5.714;2022-11-15T09:57:43;5.60;;;3.12;;
10120;SDS011;5100;45.176;5.714;2022-11-15T10:00:21;3.50;;;3.20;;
10120;SDS011;5100;45.176;5.714;2022-11-15T10:05:42;3.75;;;3.25;;
10120;SDS011;5100;45.176;5.714;2022-11-15T10:13:13;3.37;;;3.08;;
10120;SDS011;5100;45.176;5.714;2022-11-15T10:15:47;3.72;;;2.92;;
10120;SDS011;5100;45.176;5.714;2022-11-15T10:18:24;5.45;;;3.30;;
10120;SDS011;5100;45.176;5.714;2022-11-15T10:23:50;3.28;;;2.87;;
10120;SDS011;5100;45.176;5.714;2022-11-15T10:26:16;3.22;;;2.92;;
10120;SDS011;5100;45.176;5.714;2022-11-15T10:28:42;3.85;;;3.55;;
10120;SDS011;5100;45.176;5.714;2022-11-15T10:31:25;5.00;;;3.50;;
10120;SDS011;5100;45.176;5.714;2022-11-15T10:33:58;5.25;;;3.15;;
10120;SDS011;5100;45.176;5.714;2022-11-15T10:36:39;6.00;;;3.37;;
10120;SDS011;5100;45.176;5.714;2022-11-15T10:39:30;4.37;;;3.37;;
10120;SDS011;5100;45.176;5.714;2022-11-15T10:41:56;3.47;;;3.17;;
10120;SDS011;5100;45.176;5.714;2022-11-15T10:44:26;2.87;;;2.58;;
10120;SDS011;5100;45.176;5.714;2022-11-15T10:49:22;3.55;;;3.25;;
10120;SDS011;5100;45.176;5.714;2022-11-15T10:54:35;3.33;;;3.00;;
10120;SDS011;5100;45.176;5.714;2022-11-15T10:57:06;3.92;;;3.00;;
10120;SDS011;5100;45.176;5.714;2022-11-15T10:59:55;3.53;;;2.87;;
10120;SDS011;5100;45.176;5.714;2022-11-15T11:02:31;2.80;;;2.58;;
10120;SDS011;5100;45.176;5.714;2022-11-15T11:05:24;3.70;;;2.60;;
10120;SDS011;5100;45.176;5.714;2022-11-15T11:07:58;2.70;;;2.50;;
10120;SDS011;5100;45.176;5.714;2022-11-15T11:10:27;2.90;;;2.65;;
10120;SDS011;5100;45.176;5.714;2022-11-15T11:12:54;3.55;;;2.80;;
10120;SDS011;5100;45.176;5.714;2022-11-15T11:15:20;2.80;;;2.60;;
10120;SDS011;5100;45.176;5.714;2022-11-15T11:20:37;3.22;;;2.90;;
10120;SDS011;5100;45.176;5.714;2022-11-15T11:23:19;4.55;;;2.90;;
10120;SDS011;5100;45.176;5.714;2022-11-15T11:47:37;3.00;;;2.80;;
10120;SDS011;5100;45.176;5.714;2022-11-15T11:50:17;5.20;;;3.08;;
10120;SDS011;5100;45.176;5.714;2022-11-15T12:00:51;3.35;;;2.08;;
10120;SDS011;5100;45.176;5.714;2022-11-15T12:06:14;2.30;;;2.10;;
10120;SDS011;5100;45.176;5.714;2022-11-15T12:08:57;2.55;;;2.17;;
10120;SDS011;5100;45.176;5.714;2022-11-15T12:16:58;3.10;;;2.40;;
10120;SDS011;5100;45.176;5.714;2022-11-15T12:19:24;2.60;;;2.10;;
10120;SDS011;5100;45.176;5.714;2022-11-15T12:22:36;4.57;;;2.33;;
10120;SDS011;5100;45.176;5.714;2022-11-15T12:27:51;2.50;;;2.30;;
10120;SDS011;5100;45.176;5.714;2022-11-15T12:33:33;3.78;;;3.47;;
10120;SDS011;5100;45.176;5.714;2022-11-15T12:36:29;5.62;;;5.22;;
10120;SDS011;5100;45.176;5.714;2022-11-15T12:39:05;6.25;;;5.70;;
10120;SDS011;5100;45.176;5.714;2022-11-15T12:41:34;6.65;;;6.05;;
10120;SDS011;5100;45.176;5.714;2022-11-15T12:44:02;5.00;;;4.60;;
10120;SDS011;5100;45.176;5.714;2022-11-15T13:02:24;3.28;;;2.40;;
10120;SDS011;5100;45.176;5.714;2022-11-15T13:17:55;7.65;;;7.05;;
10120;SDS011;5100;45.176;5.714;2022-11-15T13:20:26;7.75;;;7.03;;
10120;SDS011;5100;45.176;5.714;2022-11-15T13:28:24;7.72;;;7.03;;
10120;SDS011;5100;45.176;5.714;2022-11-15T13:30:57;5.70;;;5.20;;
10120;SDS011;5100;45.176;5.714;2022-11-15T13:33:35;5.15;;;3.90;;
10120;SDS011;5100;45.176;5.714;2022-11-15T13:36:13;5.65;;;4.05;;
10120;SDS011;5100;45.176;5.714;2022-11-15T13:38:45;4.37;;;3.33;;
10120;SDS011;5100;45.176;5.714;2022-11-15T13:41:25;4.30;;;3.90;;
10120;SDS011;5100;45.176;5.714;2022-11-15T13:43:54;5.20;;;3.87;;
10120;SDS011;5100;45.176;5.714;2022-11-15T13:48:53;4.85;;;3.55;;
10120;SDS011;5100;45.176;5.714;2022-11-15T13:54:18;4.18;;;3.62;;
10120;SDS011;5100;45.176;5.714;2022-11-15T13:56:53;8.18;;;3.83;;
10120;SDS011;5100;45.176;5.714;2022-11-15T13:59:32;7.15;;;3.75;;
10120;SDS011;5100;45.176;5.714;2022-11-15T14:02:02;3.87;;;3.45;;
10120;SDS011;5100;45.176;5.714;2022-11-15T14:04:38;5.80;;;3.85;;
10120;SDS011;5100;45.176;5.714;2022-11-15T14:07:31;4.37;;;3.72;;
10120;SDS011;5100;45.176;5.714;2022-11-15T14:12:51;4.68;;;3.72;;
10120;SDS011;5100;45.176;5.714;2022-11-15T14:15:26;4.45;;;4.05;;
10120;SDS011;5100;45.176;5.714;2022-11-15T14:17:55;4.32;;;3.78;;
10120;SDS011;5100;45.176;5.714;2022-11-15T14:20:37;6.65;;;5.50;;
10120;SDS011;5100;45.176;5.714;2022-11-15T14:23:05;5.35;;;4.85;;
10120;SDS011;5100;45.176;5.714;2022-11-15T14:25:53;7.85;;;4.85;;
10120;SDS011;5100;45.176;5.714;2022-11-15T14:30:49;6.50;;;4.15;;
10120;SDS011;5100;45.176;5.714;2022-11-15T14:33:30;5.28;;;3.87;;
10120;SDS011;5100;45.176;5.714;2022-11-15T14:36:11;6.07;;;4.22;;
10120;SDS011;5100;45.176;5.714;2022-11-15T14:38:38;8.02;;;4.53;;
10120;SDS011;5100;45.176;5.714;2022-11-15T14:41:04;6.47;;;3.85;;
10120;SDS011;5100;45.176;5.714;2022-11-15T14:43:31;6.90;;;4.22;;
10120;SDS011;5100;45.176;5.714;2022-11-15T14:45:57;4.55;;;3.42;;
10120;SDS011;5100;45.176;5.714;2022-11-15T14:48:23;4.70;;;3.60;;
10120;SDS011;5100;45.176;5.714;2022-11-15T14:50:49;5.78;;;3.40;;
10120;SDS011;5100;45.176;5.714;2022-11-15T14:53:15;3.78;;;3.42;;
10120;SDS011;5100;45.176;5.714;2022-11-15T14:55:42;3.95;;;3.55;;
10120;SDS011;5100;45.176;5.714;2022-11-15T14:58:09;5.32;;;4.15;;
10120;SDS011;5100;45.176;5.714;2022-11-15T15:00:37;4.40;;;3.80;;
10120;SDS011;5100;45.176;5.714;2022-11-15T15:03:05;5.05;;;3.97;;
10120;SDS011;5100;45.176;5.714;2022-11-15T15:05:33;8.27;;;5.10;;
10120;SDS011;5100;45.176;5.714;2022-11-15T15:08:12;5.77;;;5.20;;
10120;SDS011;5100;45.176;5.714;2022-11-15T15:10:42;8.10;;;4.53;;
10120;SDS011;5100;45.176;5.714;2022-11-15T15:13:23;7.30;;;4.90;;
10120;SDS011;5100;45.176;5.714;2022-11-15T15:15:50;6.10;;;4.47;;
10120;SDS011;5100;45.176;5.714;2022-11-15T15:18:17;5.87;;;4.10;;
10120;SDS011;5100;45.176;5.714;2022-11-15T15:20:44;5.35;;;4.82;;
10120;SDS011;5100;45.176;5.714;2022-11-15T15:23:14;7.10;;;4.80;;
10120;SDS011;5100;45.176;5.714;2022-11-15T15:25:45;5.22;;;4.30;;
10120;SDS011;5100;45.176;5.714;2022-11-15T15:28:14;4.20;;;3.80;;
10120;SDS011;5100;45.176;5.714;2022-11-15T15:30:40;5.75;;;4.30;;
10120;SDS011;5100;45.176;5.714;2022-11-15T15:33:06;4.55;;;3.92;;
10120;SDS011;5100;45.176;5.714;2022-11-15T15:35:33;6.18;;;3.97;;
10120;SDS011;5100;45.176;5.714;2022-11-15T15:38:00;6.25;;;3.95;;
10120;SDS011;5100;45.176;5.714;2022-11-15T15:40:27;4.15;;;3.58;;
10120;SDS011;5100;45.176;5.714;2022-11-15T15:42:55;5.55;;;4.15;;
10120;SDS011;5100;45.176;5.714;2022-11-15T15:45:21;7.87;;;3.97;;
10120;SDS011;5100;45.176;5.714;2022-11-15T15:47:47;6.28;;;4.10;;
10120;SDS011;5100;45.176;5.714;2022-11-15T15:50:20;4.45;;;3.80;;
10120;SDS011;5100;45.176;5.714;2022-11-15T15:52:52;5.50;;;3.60;;
10120;SDS011;5100;45.176;5.714;2022-11-15T15:55:20;4.55;;;3.85;;
10120;SDS011;5100;45.176;5.714;2022-11-15T15:57:47;5.03;;;3.80;;
10120;SDS011;5100;45.176;5.714;2022-11-15T16:00:14;5.40;;;3.90;;
10120;SDS011;5100;45.176;5.714;2022-11-15T16:02:40;8.48;;;4.50;;
10120;SDS011;5100;45.176;5.714;2022-11-15T16:05:07;5.57;;;3.85;;
10120;SDS011;5100;45.176;5.714;2022-11-15T16:07:34;7.22;;;3.90;;
10120;SDS011;5100;45.176;5.714;2022-11-15T16:10:02;4.93;;;3.95;;
10120;SDS011;5100;45.176;5.714;2022-11-15T16:12:40;6.35;;;4.78;;
10120;SDS011;5100;45.176;5.714;2022-11-15T16:15:08;8.45;;;4.65;;
10120;SDS011;5100;45.176;5.714;2022-11-15T16:17:35;5.93;;;4.22;;
10120;SDS011;5100;45.176;5.714;2022-11-15T16:20:04;5.30;;;4.53;;
10120;SDS011;5100;45.176;5.714;2022-11-15T16:22:32;4.85;;;4.35;;
10120;SDS011;5100;45.176;5.714;2022-11-15T16:24:58;7.18;;;4.53;;
10120;SDS011;5100;45.176;5.714;2022-11-15T16:27:23;6.60;;;3.90;;
10120;SDS011;5100;45.176;5.714;2022-11-15T16:29:50;4.03;;;3.37;;
10120;SDS011;5100;45.176;5.714;2022-11-15T16:32:16;6.82;;;4.40;;
10120;SDS011;5100;45.176;5.714;2022-11-15T16:34:42;5.68;;;4.10;;
10120;SDS011;5100;45.176;5.714;2022-11-15T16:37:13;4.90;;;4.40;;
10120;SDS011;5100;45.176;5.714;2022-11-15T16:39:48;4.40;;;3.97;;
10120;SDS011;5100;45.176;5.714;2022-11-15T16:42:14;5.80;;;5.28;;
10120;SDS011;5100;45.176;5.714;2022-11-15T16:44:40;4.53;;;4.12;;
10120;SDS011;5100;45.176;5.714;2022-11-15T16:47:12;6.90;;;4.00;;
10120;SDS011;5100;45.176;5.714;2022-11-15T16:49:47;6.28;;;4.40;;
10120;SDS011;5100;45.176;5.714;2022-11-15T16:52:13;6.00;;;4.68;;
10120;SDS011;5100;45.176;5.714;2022-11-15T16:54:39;5.82;;;4.90;;
10120;SDS011;5100;45.176;5.714;2022-11-15T16:57:07;6.15;;;4.47;;
10120;SDS011;5100;45.176;5.714;2022-11-15T16:59:34;5.80;;;3.80;;
10120;SDS011;5100;45.176;5.714;2022-11-15T17:02:00;5.65;;;4.37;;
10120;SDS011;5100;45.176;5.714;2022-11-15T17:04:26;5.10;;;4.30;;
10120;SDS011;5100;45.176;5.714;2022-11-15T17:06:57;4.50;;;4.05;;
10120;SDS011;5100;45.176;5.714;2022-11-15T17:09:23;5.93;;;3.87;;
10120;SDS011;5100;45.176;5.714;2022-11-15T17:11:49;6.90;;;4.25;;
10120;SDS011;5100;45.176;5.714;2022-11-15T17:14:19;4.70;;;3.90;;
10120;SDS011;5100;45.176;5.714;2022-11-15T17:16:45;5.70;;;4.10;;
10120;SDS011;5100;45.176;5.714;2022-11-15T17:19:16;5.97;;;4.20;;
10120;SDS011;5100;45.176;5.714;2022-11-15T17:21:43;5.37;;;4.37;;
10120;SDS011;5100;45.176;5.714;2022-11-15T17:24:10;4.82;;;4.22;;
10120;SDS011;5100;45.176;5.714;2022-11-15T17:26:36;4.50;;;4.10;;
10120;SDS011;5100;45.176;5.714;2022-11-15T17:29:03;5.00;;;3.70;;
10120;SDS011;5100;45.176;5.714;2022-11-15T17:31:33;4.30;;;3.90;;
10120;SDS011;5100;45.176;5.714;2022-11-15T17:34:01;4.50;;;4.10;;
10120;SDS011;5100;45.176;5.714;2022-11-15T17:36:28;6.62;;;5.78;;
10120;SDS011;5100;45.176;5.714;2022-11-15T17:38:54;7.28;;;6.57;;
10120;SDS011;5100;45.176;5.714;2022-11-15T17:41:20;6.37;;;5.78;;
10120;SDS011;5100;45.176;5.714;2022-11-15T17:43:46;6.32;;;5.72;;
10120;SDS011;5100;45.176;5.714;2022-11-15T17:46:13;7.35;;;5.50;;
10120;SDS011;5100;45.176;5.714;2022-11-15T17:48:44;8.38;;;5.70;;
10120;SDS011;5100;45.176;5.714;2022-11-15T17:51:12;8.30;;;5.32;;
10120;SDS011;5100;45.176;5.714;2022-11-15T17:53:40;5.62;;;5.00;;
10120;SDS011;5100;45.176;5.714;2022-11-15T17:56:08;6.85;;;5.07;;
10120;SDS011;5100;45.176;5.714;2022-11-15T17:58:38;6.45;;;5.22;;
10120;SDS011;5100;45.176;5.714;2022-11-15T18:01:05;10.68;;;5.22;;
10120;SDS011;5100;45.176;5.714;2022-11-15T18:03:51;5.80;;;5.20;;
10120;SDS011;5100;45.176;5.714;2022-11-15T18:06:18;6.55;;;5.35;;
10120;SDS011;5100;45.176;5.714;2022-11-15T18:08:46;5.70;;;5.05;;
10120;SDS011;5100;45.176;5.714;2022-11-15T18:11:15;6.43;;;5.32;;
10120;SDS011;5100;45.176;5.714;2022-11-15T18:13:43;6.53;;;5.05;;
10120;SDS011;5100;45.176;5.714;2022-11-15T18:16:11;6.32;;;5.35;;
10120;SDS011;5100;45.176;5.714;2022-11-15T18:18:41;7.28;;;5.18;;
10120;SDS011;5100;45.176;5.714;2022-11-15T18:21:12;8.48;;;5.43;;
10120;SDS011;5100;45.176;5.714;2022-11-15T18:23:40;7.10;;;4.97;;
10120;SDS011;5100;45.176;5.714;2022-11-15T18:26:09;8.27;;;5.57;;
10120;SDS011;5100;45.176;5.714;2022-11-15T18:28:39;9.00;;;7.60;;
10120;SDS011;5100;45.176;5.714;2022-11-15T18:31:13;9.82;;;6.10;;
10120;SDS011;5100;45.176;5.714;2022-11-15T18:33:46;8.38;;;5.87;;
10120;SDS011;5100;45.176;5.714;2022-11-15T18:36:14;6.93;;;5.72;;
10120;SDS011;5100;45.176;5.714;2022-11-15T18:38:44;6.78;;;5.50;;
10120;SDS011;5100;45.176;5.714;2022-11-15T18:41:11;7.95;;;5.97;;
10120;SDS011;5100;45.176;5.714;2022-11-15T18:43:40;7.87;;;5.55;;
10120;SDS011;5100;45.176;5.714;2022-11-15T18:46:07;6.80;;;6.03;;
10120;SDS011;5100;45.176;5.714;2022-11-15T18:48:38;9.10;;;5.82;;